Time;durP1;ratioP1;P1;durP2;ratioP2;P2;SDS_P1;SDS_P2;PMS_P1;PMS_P2;Temp;Humidity;BMP_temperature;BMP_pressure;BME280_temperature;BME280_humidity;BME280_pressure;Samples;Min_cycle;Max_cycle;Signal;HPM_P1;HPM_P2
2023/08/31 00:00:43;;;;;;;5.70;3.50;;;14.90;32.40;;;;;;5031610;28;20514;-54
2023/08/31 00:03:09;;;;;;;3.57;2.70;;;14.90;33.40;;;;;;5036355;28;20451;-54
2023/08/31 00:05:39;;;;;;;2.97;2.77;;;14.90;29.60;;;;;;5032451;28;20516;-53
2023/08/31 00:08:06;;;;;;;5.03;3.17;;;14.90;30.70;;;;;;5031620;28;20517;-53
2023/08/31 00:10:33;;;;;;;7.60;3.47;;;14.90;30.40;;;;;;5032516;28;20479;-53
2023/08/31 00:12:59;;;;;;;6.77;3.00;;;14.90;26.50;;;;;;5027410;28;21026;-54
2023/08/31 00:15:28;;;;;;;10.70;3.50;;;14.90;25.00;;;;;;5029548;28;21011;-54
2023/08/31 00:17:56;;;;;;;4.87;2.70;;;14.90;22.30;;;;;;5034803;28;20948;-54
2023/08/31 00:20:22;;;;;;;4.63;3.23;;;14.90;73.20;;;;;;5034727;28;20543;-55
2023/08/31 00:22:49;;;;;;;4.07;3.67;;;14.90;87.00;;;;;;5029574;28;20462;-53
2023/08/31 00:25:16;;;;;;;4.30;3.50;;;14.90;88.00;;;;;;5034464;28;20956;-54
2023/08/31 00:27:42;;;;;;;3.83;3.33;;;14.90;87.40;;;;;;5032027;28;20482;-53
2023/08/31 00:30:14;;;;;;;3.70;3.40;;;14.90;90.40;;;;;;5027744;28;20528;-55
2023/08/31 00:32:42;;;;;;;3.33;3.03;;;14.90;91.90;;;;;;5031227;28;20458;-53
2023/08/31 00:35:10;;;;;;;3.37;3.07;;;14.90;91.60;;;;;;5040361;28;20550;-55
2023/08/31 00:37:38;;;;;;;4.40;3.03;;;14.90;95.50;;;;;;5033826;28;20970;-53
2023/08/31 00:40:08;;;;;;;3.93;3.23;;;14.90;96.70;;;;;;5029901;28;20475;-55
2023/08/31 00:42:35;;;;;;;5.27;3.53;;;14.90;99.90;;;;;;5031502;28;20781;-53
2023/08/31 00:45:02;;;;;;;3.67;3.30;;;14.90;99.90;;;;;;5035585;28;20557;-54
2023/08/31 00:47:28;;;;;;;3.50;3.20;;;14.90;97.80;;;;;;5030171;28;20477;-54
2023/08/31 00:49:55;;;;;;;3.80;2.97;;;14.90;99.90;;;;;;5031048;28;20498;-54
2023/08/31 00:52:24;;;;;;;3.70;3.30;;;14.90;99.90;;;;;;5031506;28;20474;-52
2023/08/31 00:54:53;;;;;;;7.57;4.27;;;14.90;99.90;;;;;;5035617;28;20525;-55
2023/08/31 00:57:20;;;;;;;3.90;3.33;;;14.90;99.90;;;;;;5028353;28;21034;-53
2023/08/31 00:59:46;;;;;;;5.37;3.77;;;14.90;99.90;;;;;;5030600;28;20475;-54
2023/08/31 01:02:38;;;;;;;3.63;3.33;;;14.90;99.90;;;;;;5033790;28;20520;-54
2023/08/31 01:05:09;;;;;;;3.30;3.10;;;14.80;99.90;;;;;;5025985;28;20462;-53
2023/08/31 01:07:45;;;;;;;4.17;3.77;;;14.80;99.90;;;;;;5019584;28;20471;-54
2023/08/31 01:10:18;;;;;;;3.33;3.13;;;14.80;99.90;;;;;;5042038;28;20485;-55
2023/08/31 01:12:51;;;;;;;4.40;4.00;;;14.80;99.90;;;;;;5031866;28;20505;-53
2023/08/31 01:15:19;;;;;;;4.47;4.13;;;14.80;99.90;;;;;;5027986;28;20462;-52
2023/08/31 01:17:49;;;;;;;3.80;3.50;;;14.80;99.90;;;;;;5025438;28;20459;-53
2023/08/31 01:20:20;;;;;;;6.07;3.83;;;14.80;99.90;;;;;;5026894;28;21186;-55
2023/08/31 01:22:56;;;;;;;6.40;4.43;;;14.80;99.90;;;;;;5032205;28;20489;-53
2023/08/31 01:25:25;;;;;;;6.67;4.07;;;14.80;99.90;;;;;;5024124;28;20525;-52
2023/08/31 01:27:52;;;;;;;5.63;5.03;;;14.80;99.90;;;;;;5028028;28;20854;-54
2023/08/31 01:30:18;;;;;;;4.57;4.23;;;14.80;99.90;;;;;;5033071;28;20877;-55
2023/08/31 01:32:46;;;;;;;4.90;4.37;;;14.80;99.90;;;;;;5031190;28;20512;-53
2023/08/31 01:35:16;;;;;;;5.30;4.80;;;14.80;99.90;;;;;;5034747;28;20458;-55
2023/08/31 01:37:48;;;;;;;4.33;4.03;;;14.80;99.90;;;;;;5032066;28;20454;-54
2023/08/31 01:40:19;;;;;;;4.20;3.87;;;14.80;99.90;;;;;;5031240;28;20474;-53
2023/08/31 01:42:48;;;;;;;11.00;5.20;;;14.80;99.90;;;;;;5025228;28;20462;-53
2023/08/31 01:45:20;;;;;;;5.00;4.70;;;14.70;99.90;;;;;;5027743;28;20537;-53
2023/08/31 01:47:47;;;;;;;5.07;4.67;;;14.70;99.90;;;;;;5030965;28;20994;-53
2023/08/31 01:50:13;;;;;;;7.57;4.10;;;14.70;99.90;;;;;;5037082;28;20489;-54
2023/08/31 01:52:40;;;;;;;6.50;4.37;;;14.70;99.90;;;;;;5031871;28;20521;-53
2023/08/31 01:55:07;;;;;;;5.03;4.53;;;14.70;99.90;;;;;;5035390;28;20453;-53
2023/08/31 01:57:34;;;;;;;4.97;4.60;;;14.70;99.90;;;;;;5029014;28;20497;-55
2023/08/31 02:00:03;;;;;;;9.97;4.27;;;14.70;99.90;;;;;;5032115;28;20479;-54
2023/08/31 02:02:30;;;;;;;4.77;4.30;;;14.70;99.90;;;;;;5035568;28;20515;-54
2023/08/31 02:04:56;;;;;;;4.67;4.17;;;14.60;99.90;;;;;;5034161;28;20466;-55
2023/08/31 02:07:23;;;;;;;4.43;4.03;;;14.60;99.90;;;;;;5029104;28;20485;-54
2023/08/31 02:09:50;;;;;;;4.60;3.97;;;14.60;99.90;;;;;;5036370;28;20972;-54
2023/08/31 02:12:16;;;;;;;4.30;4.00;;;14.60;99.90;;;;;;5029819;28;20966;-54
2023/08/31 02:14:43;;;;;;;4.77;3.93;;;14.60;99.90;;;;;;5028901;28;20521;-54
2023/08/31 02:17:10;;;;;;;4.50;4.10;;;14.60;99.90;;;;;;5027347;28;20455;-53
2023/08/31 02:19:37;;;;;;;4.37;4.03;;;14.50;99.90;;;;;;5033210;28;20458;-55
2023/08/31 02:22:04;;;;;;;4.40;3.47;;;14.40;99.90;;;;;;5034484;28;20431;-55
2023/08/31 02:24:30;;;;;;;3.80;3.50;;;14.30;99.90;;;;;;5026724;28;20455;-55
2023/08/31 02:26:57;;;;;;;4.33;3.93;;;14.20;99.90;;;;;;5030947;28;20478;-55
2023/08/31 02:29:24;;;;;;;3.87;3.57;;;14.20;99.90;;;;;;5032372;28;20553;-53
2023/08/31 02:31:50;;;;;;;3.93;3.53;;;14.10;99.90;;;;;;5021931;28;20501;-53
2023/08/31 02:34:18;;;;;;;4.67;4.27;;;14.10;99.90;;;;;;5031836;28;20865;-53
2023/08/31 02:36:45;;;;;;;4.80;3.30;;;14.10;99.90;;;;;;5031918;28;20455;-54
2023/08/31 02:39:13;;;;;;;3.40;3.10;;;14.00;99.90;;;;;;5032028;28;20491;-54
2023/08/31 02:41:39;;;;;;;3.37;3.07;;;13.90;99.90;;;;;;5039759;28;20482;-54
2023/08/31 02:44:06;;;;;;;3.63;3.33;;;13.90;99.90;;;;;;5033264;28;21115;-53
2023/08/31 02:46:32;;;;;;;3.80;3.40;;;13.80;99.90;;;;;;5029803;28;20505;-54
2023/08/31 02:48:59;;;;;;;2.83;2.63;;;13.80;99.90;;;;;;5028441;28;20508;-54
2023/08/31 02:51:27;;;;;;;2.87;2.67;;;13.80;99.90;;;;;;5040897;28;20542;-54
2023/08/31 02:53:54;;;;;;;2.90;2.70;;;13.70;99.90;;;;;;5034912;28;20941;-54
2023/08/31 02:56:20;;;;;;;4.10;2.37;;;13.80;99.90;;;;;;5036962;28;20543;-53
2023/08/31 02:58:47;;;;;;;4.57;3.03;;;13.70;99.90;;;;;;5037910;28;20521;-53
2023/08/31 03:01:14;;;;;;;2.80;2.60;;;13.70;99.90;;;;;;5032459;28;20548;-54
2023/08/31 03:03:43;;;;;;;2.93;2.73;;;13.70;99.90;;;;;;5035102;28;20461;-55
2023/08/31 03:06:10;;;;;;;3.13;2.93;;;13.70;99.90;;;;;;5030444;28;20459;-54
2023/08/31 03:08:39;;;;;;;2.23;2.00;;;13.60;99.90;;;;;;5032724;28;20850;-55
2023/08/31 03:11:06;;;;;;;2.60;2.40;;;13.60;99.90;;;;;;5034009;28;20487;-53
2023/08/31 03:13:33;;;;;;;3.73;3.00;;;13.60;99.90;;;;;;5037393;28;21069;-53
2023/08/31 03:16:01;;;;;;;2.90;2.57;;;13.50;99.90;;;;;;5035807;28;20491;-53
2023/08/31 03:18:28;;;;;;;3.13;2.80;;;13.50;99.90;;;;;;5032590;28;20455;-53
2023/08/31 03:20:55;;;;;;;3.53;2.80;;;13.50;99.90;;;;;;5033462;28;20570;-54
2023/08/31 03:23:22;;;;;;;3.17;2.70;;;13.50;99.90;;;;;;5030840;28;20462;-53
2023/08/31 03:25:50;;;;;;;2.83;2.30;;;13.50;99.90;;;;;;5031491;28;20447;-54
2023/08/31 03:28:17;;;;;;;3.40;3.10;;;13.50;99.90;;;;;;5031597;28;20897;-53
2023/08/31 03:30:44;;;;;;;2.20;2.10;;;13.50;99.90;;;;;;5032795;28;20486;-53
2023/08/31 03:33:11;;;;;;;2.80;2.57;;;13.50;99.90;;;;;;5033456;28;20445;-54
2023/08/31 03:35:38;;;;;;;3.43;2.67;;;13.50;99.90;;;;;;5028399;28;21047;-55
2023/08/31 03:38:05;;;;;;;2.77;2.57;;;13.50;99.90;;;;;;5032411;28;20439;-54
2023/08/31 03:40:32;;;;;;;2.70;2.50;;;13.50;99.90;;;;;;5030478;28;20961;-54
2023/08/31 03:43:00;;;;;;;2.80;2.60;;;13.40;99.90;;;;;;5032970;28;21042;-52
2023/08/31 03:45:26;;;;;;;3.60;2.50;;;13.50;99.90;;;;;;5035257;28;20465;-54
2023/08/31 03:47:53;;;;;;;2.77;2.57;;;13.50;99.90;;;;;;5033146;28;20541;-54
2023/08/31 03:50:20;;;;;;;2.27;2.17;;;13.50;99.90;;;;;;5033095;28;20494;-52
2023/08/31 03:52:46;;;;;;;3.80;2.47;;;13.40;99.90;;;;;;5031488;28;20463;-52
2023/08/31 03:55:13;;;;;;;2.77;2.57;;;13.40;99.90;;;;;;5028834;28;20524;-52
2023/08/31 03:57:39;;;;;;;2.60;2.40;;;13.40;99.90;;;;;;5036948;28;20480;-52
2023/08/31 04:00:10;;;;;;;3.57;2.87;;;13.40;99.90;;;;;;5030541;28;20523;-52
2023/08/31 04:02:37;;;;;;;4.00;2.47;;;13.40;99.90;;;;;;5031770;28;20996;-52
2023/08/31 04:05:05;;;;;;;3.13;2.93;;;13.40;99.90;;;;;;5035720;28;20516;-51
2023/08/31 04:07:32;;;;;;;5.10;2.90;;;13.40;99.90;;;;;;5030154;28;20470;-52
2023/08/31 04:09:59;;;;;;;3.83;3.47;;;13.30;99.90;;;;;;5031260;28;20463;-52
2023/08/31 04:12:26;;;;;;;2.87;2.67;;;13.30;99.90;;;;;;5028532;28;20463;-51
2023/08/31 04:14:52;;;;;;;2.83;2.63;;;13.30;99.90;;;;;;5035332;28;20669;-51
2023/08/31 04:17:20;;;;;;;3.80;3.50;;;13.30;99.90;;;;;;5030864;28;20933;-51
2023/08/31 04:19:47;;;;;;;3.97;3.40;;;13.30;99.90;;;;;;5036055;28;21149;-51
2023/08/31 04:22:13;;;;;;;3.63;3.33;;;13.30;99.90;;;;;;5032011;28;20951;-52
2023/08/31 04:24:40;;;;;;;3.80;3.50;;;13.30;99.90;;;;;;5036384;28;20459;-52
2023/08/31 04:27:08;;;;;;;4.27;3.87;;;13.30;99.90;;;;;;5031516;28;20459;-52
2023/08/31 04:29:33;;;;;;;6.30;3.40;;;13.30;99.90;;;;;;5036190;28;20974;-51
2023/08/31 04:32:00;;;;;;;4.17;3.87;;;13.30;99.90;;;;;;5029965;28;20455;-51
2023/08/31 04:34:28;;;;;;;4.07;3.50;;;13.30;99.90;;;;;;5035665;28;20243;-53
2023/08/31 04:36:54;;;;;;;3.83;3.50;;;13.30;99.90;;;;;;5025114;28;20466;-52
2023/08/31 04:39:21;;;;;;;3.70;3.40;;;13.30;99.90;;;;;;5029078;28;20455;-53
2023/08/31 04:41:48;;;;;;;4.47;4.03;;;13.30;99.90;;;;;;5024045;28;20545;-53
2023/08/31 04:44:15;;;;;;;4.10;3.80;;;13.30;99.90;;;;;;5028382;28;20562;-54
2023/08/31 04:46:41;;;;;;;4.47;4.17;;;13.30;99.90;;;;;;5029275;28;20463;-55
2023/08/31 04:49:14;;;;;;;4.37;3.97;;;13.30;99.90;;;;;;5028538;28;20540;-50
2023/08/31 04:51:58;;;;;;;4.67;4.13;;;13.30;99.90;;;;;;5028503;28;20515;-52
2023/08/31 04:54:33;;;;;;;5.70;5.20;;;13.30;99.90;;;;;;5028604;28;20558;-52
2023/08/31 04:57:00;;;;;;;5.77;5.10;;;13.30;99.90;;;;;;5025072;28;20458;-52
2023/08/31 04:59:27;;;;;;;5.30;4.17;;;13.30;99.90;;;;;;5025926;28;20455;-52
2023/08/31 05:01:53;;;;;;;6.50;5.17;;;13.30;99.90;;;;;;5032898;28;20454;-51
2023/08/31 05:04:20;;;;;;;6.83;4.70;;;13.30;99.90;;;;;;5027254;28;20467;-51
2023/08/31 05:06:48;;;;;;;6.10;5.50;;;13.30;99.90;;;;;;5028088;28;20463;-52
2023/08/31 05:09:15;;;;;;;5.90;5.30;;;13.30;99.90;;;;;;5030793;28;20474;-53
2023/08/31 05:11:41;;;;;;;6.10;5.50;;;13.30;99.90;;;;;;5033347;28;20486;-52
2023/08/31 05:14:08;;;;;;;6.67;6.07;;;13.30;99.90;;;;;;5029700;28;20509;-52
2023/08/31 05:16:35;;;;;;;5.57;5.07;;;13.30;99.90;;;;;;5029223;28;20567;-52
2023/08/31 05:19:01;;;;;;;6.97;5.40;;;13.30;99.90;;;;;;5028113;28;20481;-52
2023/08/31 05:21:28;;;;;;;11.53;6.13;;;13.30;99.90;;;;;;5025853;28;20485;-51
2023/08/31 05:23:56;;;;;;;6.10;5.60;;;13.40;99.90;;;;;;5028138;28;21026;-52
2023/08/31 05:26:23;;;;;;;7.10;6.40;;;13.40;99.90;;;;;;5030388;28;20525;-53
2023/08/31 05:28:50;;;;;;;7.93;6.83;;;13.40;99.90;;;;;;5028591;28;20563;-53
2023/08/31 05:31:16;;;;;;;6.57;5.97;;;13.40;99.90;;;;;;5034399;28;20478;-52
2023/08/31 05:33:43;;;;;;;9.90;6.30;;;13.40;99.90;;;;;;5029677;28;20492;-52
2023/08/31 05:36:10;;;;;;;8.93;7.20;;;13.50;99.90;;;;;;5030997;28;20509;-52
2023/08/31 05:38:36;;;;;;;9.50;6.90;;;13.50;99.90;;;;;;5032459;28;20514;-51
2023/08/31 05:41:09;;;;;;;10.93;7.50;;;13.50;99.90;;;;;;5032169;28;20563;-53
2023/08/31 05:43:36;;;;;;;9.93;6.83;;;13.50;99.90;;;;;;5030176;28;20554;-51
2023/08/31 05:46:03;;;;;;;13.00;6.90;;;13.50;99.90;;;;;;5028453;28;20455;-52
2023/08/31 05:48:31;;;;;;;8.77;7.90;;;13.50;99.90;;;;;;5033012;28;20572;-51
2023/08/31 05:50:58;;;;;;;7.63;6.87;;;13.50;99.90;;;;;;5031770;28;20493;-53
2023/08/31 05:53:24;;;;;;;8.53;6.90;;;13.50;99.90;;;;;;5029263;28;20929;-52
2023/08/31 05:55:51;;;;;;;9.23;7.50;;;13.60;99.90;;;;;;5032523;28;20462;-53
2023/08/31 05:58:19;;;;;;;9.53;6.83;;;13.60;99.90;;;;;;5031406;28;20520;-52
2023/08/31 06:00:45;;;;;;;10.83;7.53;;;13.60;99.90;;;;;;5030537;28;21089;-52
2023/08/31 06:03:12;;;;;;;8.33;7.53;;;13.70;99.90;;;;;;5029551;28;20458;-53
2023/08/31 06:05:39;;;;;;;11.43;7.20;;;13.70;99.90;;;;;;5033641;28;20439;-51
2023/08/31 06:08:06;;;;;;;8.93;6.93;;;13.70;99.90;;;;;;5031195;28;20474;-53
2023/08/31 06:10:33;;;;;;;9.90;7.40;;;13.70;99.90;;;;;;5034323;28;20458;-53
2023/08/31 06:12:59;;;;;;;8.23;7.43;;;13.70;99.90;;;;;;5022214;28;20486;-53
2023/08/31 06:15:27;;;;;;;12.53;7.13;;;13.70;99.90;;;;;;5025174;28;20462;-52
2023/08/31 06:17:54;;;;;;;11.40;7.40;;;13.70;99.90;;;;;;5027118;28;20466;-53
2023/08/31 06:20:21;;;;;;;8.23;7.33;;;13.70;99.90;;;;;;5027542;28;20513;-51
2023/08/31 06:22:47;;;;;;;8.60;7.57;;;13.70;99.90;;;;;;5028264;28;20467;-51
2023/08/31 06:25:15;;;;;;;13.20;7.70;;;13.70;99.90;;;;;;5026511;28;20520;-51
2023/08/31 06:27:43;;;;;;;10.43;7.60;;;13.70;99.90;;;;;;5026579;28;20454;-54
2023/08/31 06:30:15;;;;;;;8.93;6.80;;;13.80;99.90;;;;;;5029761;28;20487;-53
2023/08/31 06:32:44;;;;;;;9.03;7.57;;;13.80;99.90;;;;;;5030199;28;20956;-51
2023/08/31 06:35:10;;;;;;;7.83;7.03;;;13.80;99.90;;;;;;5028786;28;20461;-52
2023/08/31 06:37:37;;;;;;;10.30;6.90;;;13.80;99.90;;;;;;5024343;28;20454;-51
2023/08/31 06:40:04;;;;;;;7.50;6.73;;;13.80;99.90;;;;;;5020069;28;20514;-52
2023/08/31 06:42:31;;;;;;;8.67;7.50;;;13.90;99.90;;;;;;5028779;28;20462;-51
2023/08/31 06:44:57;;;;;;;9.27;7.57;;;14.00;99.90;;;;;;5026416;28;20459;-52
2023/08/31 06:47:24;;;;;;;8.17;7.07;;;14.00;99.90;;;;;;5033309;28;20463;-52
2023/08/31 06:49:52;;;;;;;12.90;7.20;;;14.00;99.90;;;;;;5025629;28;20490;-52
2023/08/31 06:52:19;;;;;;;10.80;7.60;;;14.10;99.90;;;;;;5031904;28;20455;-53
2023/08/31 06:54:46;;;;;;;16.70;7.40;;;14.20;99.90;;;;;;5023272;28;20459;-53
2023/08/31 06:57:14;;;;;;;8.20;7.43;;;14.10;99.90;;;;;;5022778;28;20999;-53
2023/08/31 06:59:41;;;;;;;17.70;7.90;;;14.10;99.90;;;;;;5026715;28;20452;-52
2023/08/31 07:02:07;;;;;;;10.40;6.47;;;14.10;99.90;;;;;;5030950;28;20478;-52
2023/08/31 07:04:34;;;;;;;7.87;7.03;;;14.10;99.90;;;;;;5028294;28;20524;-53
2023/08/31 07:07:02;;;;;;;8.00;6.57;;;14.10;99.90;;;;;;5030126;28;20949;-53
2023/08/31 07:09:29;;;;;;;11.13;5.70;;;14.10;99.90;;;;;;5028959;28;20573;-53
2023/08/31 07:11:55;;;;;;;7.13;6.27;;;14.10;99.90;;;;;;5021533;28;20463;-52
2023/08/31 07:14:22;;;;;;;6.47;5.63;;;14.10;99.90;;;;;;5024657;28;20458;-53
2023/08/31 07:16:48;;;;;;;11.93;7.10;;;14.20;99.90;;;;;;5020830;28;20540;-53
2023/08/31 07:19:15;;;;;;;6.10;5.50;;;14.20;99.90;;;;;;5024136;28;20464;-53
2023/08/31 07:21:42;;;;;;;9.37;5.70;;;14.20;99.90;;;;;;5024112;28;20478;-51
2023/08/31 07:24:09;;;;;;;5.30;4.80;;;14.20;99.90;;;;;;5027717;28;20462;-53
2023/08/31 07:26:36;;;;;;;10.20;5.40;;;14.20;99.90;;;;;;5025158;28;20525;-53
2023/08/31 07:29:04;;;;;;;5.33;4.83;;;14.20;99.90;;;;;;5016547;28;20513;-53
2023/08/31 07:31:31;;;;;;;8.70;5.33;;;14.20;99.90;;;;;;5028298;28;20532;-52
2023/08/31 07:33:57;;;;;;;9.23;5.10;;;14.20;99.90;;;;;;5030097;28;20964;-53
2023/08/31 07:36:24;;;;;;;8.53;4.80;;;14.20;99.90;;;;;;5029212;28;20486;-52
2023/08/31 07:38:51;;;;;;;7.87;5.03;;;14.20;99.90;;;;;;5032588;28;20506;-52
2023/08/31 07:41:19;;;;;;;7.37;4.80;;;14.30;99.90;;;;;;5026992;28;20475;-53
2023/08/31 07:43:45;;;;;;;7.70;4.60;;;14.20;99.90;;;;;;5025817;28;20517;-52
2023/08/31 07:46:12;;;;;;;5.13;3.80;;;14.20;99.90;;;;;;5029802;28;20458;-53
2023/08/31 07:48:39;;;;;;;7.20;3.57;;;14.20;99.90;;;;;;5027618;28;20990;-53
2023/08/31 07:51:05;;;;;;;5.87;3.43;;;14.10;89.00;;;;;;5028596;28;20490;-52
2023/08/31 07:53:32;;;;;;;9.07;3.83;;;14.10;20.50;;;;;;5015373;28;20467;-52
2023/08/31 07:55:59;;;;;;;13.23;3.40;;;14.10;92.10;;;;;;5026462;28;20508;-52
2023/08/31 07:58:27;;;;;;;11.00;4.17;;;14.10;87.40;;;;;;5026780;28;20464;-53
2023/08/31 08:00:54;;;;;;;8.70;4.00;;;14.10;23.40;;;;;;5027197;28;20487;-52
2023/08/31 08:03:21;;;;;;;8.47;4.13;;;14.20;93.60;;;;;;5026054;28;20463;-53
2023/08/31 08:05:47;;;;;;;4.53;3.50;;;14.30;99.90;;;;;;5026623;28;21086;-52
2023/08/31 08:08:14;;;;;;;8.33;4.50;;;14.40;99.90;;;;;;5021882;28;21018;-52
2023/08/31 08:10:42;;;;;;;6.67;4.73;;;14.70;99.90;;;;;;5028010;28;20487;-53
2023/08/31 08:13:09;;;;;;;10.17;4.53;;;14.90;99.90;;;;;;5019653;28;20470;-51
2023/08/31 08:15:38;;;;;;;10.73;4.33;;;14.80;32.30;;;;;;5028175;28;20463;-50
2023/08/31 08:18:05;;;;;;;6.60;3.57;;;15.00;25.30;;;;;;5028435;28;20478;-51
2023/08/31 08:20:32;;;;;;;8.53;3.73;;;15.10;34.40;;;;;;5025932;28;20506;-53
2023/08/31 08:22:59;;;;;;;6.33;4.00;;;15.10;53.50;;;;;;5026860;28;20491;-52
2023/08/31 08:25:26;;;;;;;9.60;3.50;;;15.10;52.10;;;;;;5023377;28;20459;-53
2023/08/31 08:27:52;;;;;;;12.23;2.93;;;15.00;57.90;;;;;;5027529;28;20463;-52
2023/08/31 08:30:19;;;;;;;9.13;3.40;;;15.00;55.60;;;;;;5023548;28;20515;-52
2023/08/31 08:32:47;;;;;;;8.33;2.73;;;15.10;56.90;;;;;;5023677;28;20458;-52
2023/08/31 08:35:13;;;;;;;11.80;2.80;;;15.20;53.00;;;;;;5021078;28;20463;-53
2023/08/31 08:37:40;;;;;;;3.30;3.00;;;15.20;65.50;;;;;;5028088;28;20538;-53
2023/08/31 08:40:08;;;;;;;4.37;3.67;;;15.30;67.30;;;;;;5028758;28;20478;-52
2023/08/31 08:42:41;;;;;;;6.00;2.97;;;15.40;75.20;;;;;;5026131;28;20901;-53
2023/08/31 08:45:12;;;;;;;8.70;2.90;;;15.50;71.00;;;;;;5024300;28;20517;-52
2023/08/31 08:47:41;;;;;;;4.70;2.20;;;15.50;83.50;;;;;;5019732;28;20589;-52
2023/08/31 08:50:10;;;;;;;3.57;2.23;;;15.50;72.60;;;;;;5023300;28;20507;-53
2023/08/31 08:52:37;;;;;;;5.97;2.60;;;15.50;78.30;;;;;;5026566;28;20561;-52
2023/08/31 08:55:05;;;;;;;6.43;2.37;;;15.60;88.60;;;;;;5024360;28;20463;-52
2023/08/31 08:57:32;;;;;;;4.63;2.10;;;15.80;87.70;;;;;;5025252;28;20536;-51
2023/08/31 08:59:59;;;;;;;4.40;2.10;;;16.10;99.90;;;;;;5026495;28;21000;-53
2023/08/31 09:02:25;;;;;;;2.07;1.80;;;16.50;99.90;;;;;;5021214;28;20463;-52
2023/08/31 09:04:54;;;;;;;3.20;1.57;;;16.70;99.90;;;;;;5021962;28;20544;-55
2023/08/31 09:07:22;;;;;;;8.67;1.67;;;17.00;99.90;;;;;;5022363;28;20609;-53
2023/08/31 09:09:51;;;;;;;7.53;2.20;;;17.10;99.90;;;;;;5022537;28;20518;-53
2023/08/31 09:12:17;;;;;;;6.20;1.70;;;16.70;99.90;;;;;;5018624;28;20462;-53
2023/08/31 09:14:44;;;;;;;4.10;1.80;;;16.10;70.30;;;;;;5025389;28;20454;-51
2023/08/31 09:17:11;;;;;;;6.83;2.20;;;15.60;47.20;;;;;;5028599;28;20564;-53
2023/08/31 09:19:38;;;;;;;8.57;1.90;;;15.40;63.90;;;;;;5025881;28;21450;-51
2023/08/31 09:22:04;;;;;;;3.60;1.70;;;15.20;44.10;;;;;;5018809;28;20984;-53
2023/08/31 09:24:44;;;;;;;5.97;2.30;;;15.30;23.70;;;;;;5027280;28;20459;-53
2023/08/31 09:27:11;;;;;;;8.23;1.83;;;15.50;31.70;;;;;;5024782;28;20479;-52
2023/08/31 09:29:39;;;;;;;3.30;1.37;;;15.70;68.10;;;;;;5024729;28;20481;-53
2023/08/31 09:32:05;;;;;;;10.23;1.90;;;15.70;99.90;;;;;;5017473;28;20852;-53
2023/08/31 09:34:34;;;;;;;5.80;1.43;;;15.70;99.90;;;;;;5025235;28;20458;-52
2023/08/31 09:37:05;;;;;;;5.50;1.70;;;15.60;99.90;;;;;;5027250;28;20490;-53
2023/08/31 09:39:36;;;;;;;9.50;1.77;;;16.00;99.90;;;;;;5022555;28;20825;-52
2023/08/31 09:42:05;;;;;;;7.77;1.67;;;16.40;99.90;;;;;;5023612;28;20522;-52
2023/08/31 09:44:31;;;;;;;3.93;1.83;;;16.80;99.90;;;;;;5019454;28;20463;-52
2023/08/31 09:46:58;;;;;;;1.50;1.23;;;17.30;99.90;;;;;;5027135;28;21024;-54
2023/08/31 09:49:26;;;;;;;6.43;2.53;;;17.40;99.90;;;;;;5020415;28;20526;-52
2023/08/31 09:51:53;;;;;;;4.87;1.57;;;17.60;99.90;;;;;;5020603;28;20855;-53
2023/08/31 09:54:21;;;;;;;3.07;2.27;;;17.70;34.60;;;;;;5029620;28;20948;-55
2023/08/31 09:56:48;;;;;;;5.43;1.67;;;17.80;68.00;;;;;;5015769;28;20470;-53
2023/08/31 09:59:17;;;;;;;2.77;1.00;;;18.00;71.40;;;;;;5025681;28;20532;-53
2023/08/31 10:01:46;;;;;;;5.57;1.40;;;18.30;67.60;;;;;;5023030;28;21052;-54
2023/08/31 10:04:13;;;;;;;3.40;1.20;;;18.70;79.30;;;;;;5027583;28;20944;-53
2023/08/31 10:06:40;;;;;;;2.70;1.40;;;18.60;99.90;;;;;;5028672;28;20467;-53
2023/08/31 10:09:09;;;;;;;4.27;1.40;;;18.70;99.90;;;;;;5028798;28;20517;-54
2023/08/31 10:11:36;;;;;;;11.93;1.97;;;19.10;99.90;;;;;;5027799;28;20482;-54
2023/08/31 10:14:04;;;;;;;2.60;1.40;;;19.00;99.90;;;;;;5023919;28;20496;-53
2023/08/31 10:16:33;;;;;;;2.77;1.43;;;18.60;99.90;;;;;;5027172;28;20889;-54
2023/08/31 10:18:59;;;;;;;4.00;1.33;;;19.30;99.90;;;;;;5026205;28;20581;-54
2023/08/31 10:21:26;;;;;;;3.53;1.50;;;19.70;99.90;;;;;;5029519;28;21003;-54
2023/08/31 10:23:53;;;;;;;4.20;1.40;;;20.20;99.90;;;;;;5027214;28;21399;-54
2023/08/31 10:26:27;;;;;;;4.03;1.30;;;20.90;99.90;;;;;;5031946;28;20968;-53
2023/08/31 10:28:53;;;;;;;8.60;1.30;;;21.10;99.90;;;;;;5028423;28;20530;-55
2023/08/31 10:31:22;;;;;;;3.80;1.40;;;21.40;99.90;;;;;;5023392;28;20538;-54
2023/08/31 10:33:57;;;;;;;4.80;1.60;;;21.10;99.90;;;;;;5029341;28;20481;-55
2023/08/31 10:36:37;;;;;;;3.90;1.47;;;20.30;99.90;;;;;;5029423;28;20462;-55
2023/08/31 10:39:08;;;;;;;4.63;1.40;;;19.10;99.90;;;;;;5033505;28;20549;-55
2023/08/31 10:41:35;;;;;;;3.10;1.43;;;18.50;99.90;;;;;;5020235;28;20558;-54
2023/08/31 10:44:02;;;;;;;3.07;1.37;;;17.80;99.90;;;;;;5027083;28;20466;-54
2023/08/31 10:46:30;;;;;;;4.60;2.20;;;17.70;99.90;;;;;;5029604;28;20489;-54
2023/08/31 10:48:59;;;;;;;2.60;1.27;;;17.70;99.90;;;;;;5032353;28;20546;-54
2023/08/31 10:51:28;;;;;;;6.37;1.60;;;18.60;99.90;;;;;;5028788;28;20841;-54
2023/08/31 10:54:10;;;;;;;4.90;2.13;;;18.80;99.90;;;;;;5028727;28;20458;-56
2023/08/31 10:57:12;;;;;;;7.67;1.67;;;18.40;99.90;;;;;;5026059;28;20466;-55
2023/08/31 10:59:46;;;;;;;8.50;1.87;;;17.30;28.70;;;;;;5025295;28;20467;-54
2023/08/31 11:02:29;;;;;;;8.43;1.97;;;16.10;99.90;;;;;;5022829;28;20480;-55
2023/08/31 11:05:03;;;;;;;11.67;2.00;;;15.40;76.30;;;;;;5025956;28;20467;-53
2023/08/31 11:07:29;;;;;;;7.20;1.40;;;14.80;44.20;;;;;;5020309;28;20563;-54
2023/08/31 11:10:15;;;;;;;4.57;1.40;;;14.40;35.90;;;;;;5027756;28;20486;-54
2023/08/31 11:12:42;;;;;;;4.80;1.37;;;14.10;25.00;;;;;;5025843;28;20971;-53
2023/08/31 11:15:12;;;;;;;3.87;1.60;;;14.00;21.80;;;;;;5021180;28;20972;-53
2023/08/31 11:17:40;;;;;;;5.83;1.60;;;13.90;81.50;;;;;;5029771;28;20837;-53
2023/08/31 11:20:09;;;;;;;4.57;1.80;;;14.00;99.90;;;;;;5029332;28;20759;-55
2023/08/31 11:22:40;;;;;;;2.93;1.40;;;14.10;99.90;;;;;;5023183;28;20887;-54
2023/08/31 11:25:08;;;;;;;2.80;1.20;;;14.40;99.90;;;;;;5025966;28;20473;-53
2023/08/31 11:27:34;;;;;;;4.03;1.47;;;14.50;33.00;;;;;;5027408;28;20537;-55
2023/08/31 11:30:01;;;;;;;4.83;1.80;;;14.50;36.90;;;;;;5028088;28;20491;-52
2023/08/31 11:32:27;;;;;;;4.30;1.60;;;14.50;36.60;;;;;;5029490;28;20451;-53
2023/08/31 11:34:54;;;;;;;2.10;1.37;;;14.60;35.10;;;;;;5025130;28;20510;-54
2023/08/31 11:37:22;;;;;;;1.80;1.30;;;14.60;48.70;;;;;;5025285;28;20463;-55
2023/08/31 11:39:51;;;;;;;7.17;1.40;;;14.80;61.80;;;;;;5023425;28;20482;-55
2023/08/31 11:42:18;;;;;;;3.83;1.30;;;15.10;63.50;;;;;;5023284;28;20462;-53
2023/08/31 11:44:46;;;;;;;2.40;1.77;;;15.40;76.30;;;;;;5024453;28;20803;-55
2023/08/31 11:47:13;;;;;;;1.37;1.27;;;15.50;99.90;;;;;;5031851;28;21038;-53
2023/08/31 11:49:41;;;;;;;2.27;1.40;;;15.80;94.00;;;;;;5026638;28;20478;-54
2023/08/31 11:52:08;;;;;;;4.23;1.60;;;15.90;99.90;;;;;;5028878;28;20536;-53
2023/08/31 11:54:38;;;;;;;2.03;1.83;;;16.00;99.90;;;;;;5028470;28;21010;-54
2023/08/31 11:57:07;;;;;;;2.53;1.30;;;15.80;99.90;;;;;;5022072;28;20495;-53
2023/08/31 11:59:35;;;;;;;1.57;1.20;;;15.60;99.90;;;;;;5016053;28;20495;-52
2023/08/31 12:02:02;;;;;;;2.50;1.30;;;15.40;99.90;;;;;;5017856;28;20560;-53
2023/08/31 12:04:29;;;;;;;2.30;1.50;;;15.30;99.90;;;;;;5022276;28;20478;-53
2023/08/31 12:07:04;;;;;;;14.33;1.80;;;15.20;99.90;;;;;;5025511;28;20543;-54
2023/08/31 12:09:31;;;;;;;6.67;1.60;;;15.10;99.90;;;;;;5024036;28;20477;-54
2023/08/31 12:12:00;;;;;;;5.70;1.57;;;15.10;99.90;;;;;;5020776;28;20964;-55
2023/08/31 12:14:28;;;;;;;3.47;1.60;;;15.10;92.30;;;;;;5024718;28;20458;-53
2023/08/31 12:17:02;;;;;;;5.07;1.40;;;15.00;84.60;;;;;;5023241;28;20463;-53
2023/08/31 12:19:30;;;;;;;2.47;1.27;;;15.00;86.30;;;;;;5023398;28;20462;-54
2023/08/31 12:21:57;;;;;;;4.20;1.87;;;15.10;85.80;;;;;;5027373;28;21014;-56
2023/08/31 12:24:23;;;;;;;2.77;1.70;;;15.20;76.50;;;;;;5027167;28;20462;-55
2023/08/31 12:26:50;;;;;;;3.70;2.07;;;15.70;76.70;;;;;;5025933;28;21019;-54
2023/08/31 12:29:18;;;;;;;6.90;1.80;;;16.60;99.90;;;;;;5017753;28;20963;-54
2023/08/31 12:31:45;;;;;;;1.70;1.60;;;17.00;99.90;;;;;;5023828;28;20518;-54
2023/08/31 12:34:11;;;;;;;4.80;1.60;;;17.50;99.90;;;;;;5023668;28;20952;-53
2023/08/31 12:36:40;;;;;;;2.67;1.80;;;18.30;99.90;;;;;;5030324;28;20467;-53
2023/08/31 12:39:09;;;;;;;3.87;1.50;;;18.40;27.40;;;;;;5028622;28;20839;-54
2023/08/31 12:41:36;;;;;;;2.20;1.73;;;18.30;38.60;;;;;;5023367;28;20489;-53
2023/08/31 12:44:03;;;;;;;28.73;3.20;;;18.70;32.90;;;;;;5018586;28;20584;-52
2023/08/31 12:46:31;;;;;;;2.30;1.40;;;18.40;37.30;;;;;;5021578;28;20561;-53
2023/08/31 12:48:58;;;;;;;4.27;1.50;;;17.90;37.50;;;;;;5023039;28;20964;-55